sensor_id;sensor_type;location;lat;lon;timestamp;P1;durP1;ratioP1;P2;durP2;ratioP2
54845;SDS011;53889;50.084;8.646;2023-11-21T00:01:55;6.03;;;2.47;;
54845;SDS011;53889;50.084;8.646;2023-11-21T00:04:22;6.57;;;2.28;;
54845;SDS011;53889;50.084;8.646;2023-11-21T00:06:50;8.60;;;2.67;;
54845;SDS011;53889;50.084;8.646;2023-11-21T00:09:17;6.90;;;2.00;;
54845;SDS011;53889;50.084;8.646;2023-11-21T00:11:44;7.22;;;2.42;;
54845;SDS011;53889;50.084;8.646;2023-11-21T00:14:11;6.43;;;2.20;;
54845;SDS011;53889;50.084;8.646;2023-11-21T00:16:39;7.75;;;2.40;;
54845;SDS011;53889;50.084;8.646;2023-11-21T00:19:06;7.22;;;2.17;;
54845;SDS011;53889;50.084;8.646;2023-11-21T00:21:33;6.72;;;2.35;;
54845;SDS011;53889;50.084;8.646;2023-11-21T00:24:01;5.75;;;2.20;;
54845;SDS011;53889;50.084;8.646;2023-11-21T00:26:27;6.57;;;2.47;;
54845;SDS011;53889;50.084;8.646;2023-11-21T00:29:00;6.85;;;2.70;;
54845;SDS011;53889;50.084;8.646;2023-11-21T00:31:27;6.60;;;2.17;;
54845;SDS011;53889;50.084;8.646;2023-11-21T00:33:54;6.03;;;2.10;;
54845;SDS011;53889;50.084;8.646;2023-11-21T00:36:21;8.18;;;2.15;;
54845;SDS011;53889;50.084;8.646;2023-11-21T00:38:48;7.50;;;2.30;;
54845;SDS011;53889;50.084;8.646;2023-11-21T00:41:16;7.95;;;2.30;;
54845;SDS011;53889;50.084;8.646;2023-11-21T00:43:42;6.97;;;2.03;;
54845;SDS011;53889;50.084;8.646;2023-11-21T00:46:09;6.07;;;2.42;;
54845;SDS011;53889;50.084;8.646;2023-11-21T00:48:36;10.93;;;2.85;;
54845;SDS011;53889;50.084;8.646;2023-11-21T00:51:03;6.22;;;2.40;;
54845;SDS011;53889;50.084;8.646;2023-11-21T00:53:31;5.60;;;2.40;;
54845;SDS011;53889;50.084;8.646;2023-11-21T00:55:57;6.40;;;2.53;;
54845;SDS011;53889;50.084;8.646;2023-11-21T00:58:25;11.63;;;2.97;;
54845;SDS011;53889;50.084;8.646;2023-11-21T01:00:51;6.07;;;2.30;;
54845;SDS011;53889;50.084;8.646;2023-11-21T01:03:18;5.97;;;2.88;;
54845;SDS011;53889;50.084;8.646;2023-11-21T01:05:46;5.97;;;2.75;;
54845;SDS011;53889;50.084;8.646;2023-11-21T01:08:14;6.82;;;2.53;;
54845;SDS011;53889;50.084;8.646;2023-11-21T01:10:42;4.75;;;2.33;;
54845;SDS011;53889;50.084;8.646;2023-11-21T01:13:08;7.00;;;3.15;;
54845;SDS011;53889;50.084;8.646;2023-11-21T01:15:37;5.28;;;2.65;;
54845;SDS011;53889;50.084;8.646;2023-11-21T01:18:04;7.70;;;3.08;;
54845;SDS011;53889;50.084;8.646;2023-11-21T01:20:31;5.38;;;2.80;;
54845;SDS011;53889;50.084;8.646;2023-11-21T01:22:57;4.65;;;2.83;;
54845;SDS011;53889;50.084;8.646;2023-11-21T01:25:26;6.13;;;3.15;;
54845;SDS011;53889;50.084;8.646;2023-11-21T01:27:53;7.40;;;3.35;;
54845;SDS011;53889;50.084;8.646;2023-11-21T01:30:20;7.43;;;3.22;;
54845;SDS011;53889;50.084;8.646;2023-11-21T01:32:48;4.90;;;2.70;;
54845;SDS011;53889;50.084;8.646;2023-11-21T01:35:15;5.03;;;3.08;;
54845;SDS011;53889;50.084;8.646;2023-11-21T01:37:42;6.18;;;2.90;;
54845;SDS011;53889;50.084;8.646;2023-11-21T01:40:09;5.20;;;3.47;;
54845;SDS011;53889;50.084;8.646;2023-11-21T01:42:39;7.00;;;3.40;;
54845;SDS011;53889;50.084;8.646;2023-11-21T01:45:06;5.88;;;3.15;;
54845;SDS011;53889;50.084;8.646;2023-11-21T01:47:34;6.28;;;3.50;;
54845;SDS011;53889;50.084;8.646;2023-11-21T01:50:04;5.07;;;3.10;;
54845;SDS011;53889;50.084;8.646;2023-11-21T01:52:33;7.82;;;2.80;;
54845;SDS011;53889;50.084;8.646;2023-11-21T01:55:01;5.75;;;3.45;;
54845;SDS011;53889;50.084;8.646;2023-11-21T01:57:29;6.82;;;3.30;;
54845;SDS011;53889;50.084;8.646;2023-11-21T01:59:57;5.65;;;3.17;;
54845;SDS011;53889;50.084;8.646;2023-11-21T02:02:37;7.47;;;4.57;;
54845;SDS011;53889;50.084;8.646;2023-11-21T02:05:06;6.85;;;3.30;;
54845;SDS011;53889;50.084;8.646;2023-11-21T02:07:34;6.13;;;3.20;;
54845;SDS011;53889;50.084;8.646;2023-11-21T02:10:01;8.30;;;3.72;;
54845;SDS011;53889;50.084;8.646;2023-11-21T02:12:29;8.63;;;4.00;;
54845;SDS011;53889;50.084;8.646;2023-11-21T02:14:56;8.57;;;4.28;;
54845;SDS011;53889;50.084;8.646;2023-11-21T02:17:23;9.25;;;4.53;;
54845;SDS011;53889;50.084;8.646;2023-11-21T02:19:50;7.40;;;3.53;;
54845;SDS011;53889;50.084;8.646;2023-11-21T02:22:18;8.32;;;3.55;;
54845;SDS011;53889;50.084;8.646;2023-11-21T02:24:47;7.75;;;3.70;;
54845;SDS011;53889;50.084;8.646;2023-11-21T02:27:14;28.25;;;13.35;;
54845;SDS011;53889;50.084;8.646;2023-11-21T02:29:46;9.65;;;4.57;;
54845;SDS011;53889;50.084;8.646;2023-11-21T02:32:12;8.95;;;3.75;;
54845;SDS011;53889;50.084;8.646;2023-11-21T02:34:39;9.75;;;3.67;;
54845;SDS011;53889;50.084;8.646;2023-11-21T02:37:06;7.18;;;3.47;;
54845;SDS011;53889;50.084;8.646;2023-11-21T02:39:32;10.63;;;3.60;;
54845;SDS011;53889;50.084;8.646;2023-11-21T02:42:00;8.18;;;4.20;;
54845;SDS011;53889;50.084;8.646;2023-11-21T02:44:27;7.90;;;3.90;;
54845;SDS011;53889;50.084;8.646;2023-11-21T02:46:54;9.77;;;3.47;;
54845;SDS011;53889;50.084;8.646;2023-11-21T02:49:22;9.70;;;3.80;;
54845;SDS011;53889;50.084;8.646;2023-11-21T02:51:53;8.65;;;5.03;;
54845;SDS011;53889;50.084;8.646;2023-11-21T02:54:20;7.30;;;4.88;;
54845;SDS011;53889;50.084;8.646;2023-11-21T02:56:47;8.82;;;4.95;;
54845;SDS011;53889;50.084;8.646;2023-11-21T02:59:16;7.60;;;4.40;;
54845;SDS011;53889;50.084;8.646;2023-11-21T03:01:44;7.05;;;4.03;;
54845;SDS011;53889;50.084;8.646;2023-11-21T03:04:11;6.38;;;4.47;;
54845;SDS011;53889;50.084;8.646;2023-11-21T03:06:42;5.90;;;3.83;;
54845;SDS011;53889;50.084;8.646;2023-11-21T03:09:09;8.38;;;4.13;;
54845;SDS011;53889;50.084;8.646;2023-11-21T03:11:37;4.90;;;3.15;;
54845;SDS011;53889;50.084;8.646;2023-11-21T03:14:04;5.00;;;2.95;;
54845;SDS011;53889;50.084;8.646;2023-11-21T03:16:32;6.43;;;3.38;;
54845;SDS011;53889;50.084;8.646;2023-11-21T03:18:59;5.18;;;3.33;;
54845;SDS011;53889;50.084;8.646;2023-11-21T03:21:26;4.57;;;3.03;;
54845;SDS011;53889;50.084;8.646;2023-11-21T03:23:54;5.28;;;3.35;;
54845;SDS011;53889;50.084;8.646;2023-11-21T03:26:21;5.93;;;3.83;;
54845;SDS011;53889;50.084;8.646;2023-11-21T03:28:47;4.95;;;3.55;;
54845;SDS011;53889;50.084;8.646;2023-11-21T03:31:15;5.13;;;3.13;;
54845;SDS011;53889;50.084;8.646;2023-11-21T03:33:43;4.07;;;2.53;;
54845;SDS011;53889;50.084;8.646;2023-11-21T03:36:11;4.63;;;2.60;;
54845;SDS011;53889;50.084;8.646;2023-11-21T03:38:37;3.83;;;2.78;;
54845;SDS011;53889;50.084;8.646;2023-11-21T03:41:04;3.88;;;2.42;;
54845;SDS011;53889;50.084;8.646;2023-11-21T03:43:32;6.40;;;3.10;;
54845;SDS011;53889;50.084;8.646;2023-11-21T03:45:58;4.10;;;3.13;;
54845;SDS011;53889;50.084;8.646;2023-11-21T03:48:25;4.05;;;2.78;;
54845;SDS011;53889;50.084;8.646;2023-11-21T03:50:53;4.47;;;3.10;;
54845;SDS011;53889;50.084;8.646;2023-11-21T03:53:20;6.22;;;3.00;;
54845;SDS011;53889;50.084;8.646;2023-11-21T03:55:46;6.38;;;2.90;;
54845;SDS011;53889;50.084;8.646;2023-11-21T03:58:14;4.15;;;2.58;;
54845;SDS011;53889;50.084;8.646;2023-11-21T04:00:41;4.82;;;3.47;;
54845;SDS011;53889;50.084;8.646;2023-11-21T04:03:07;7.10;;;3.83;;
54845;SDS011;53889;50.084;8.646;2023-11-21T04:05:34;4.97;;;3.30;;
54845;SDS011;53889;50.084;8.646;2023-11-21T04:08:02;6.55;;;3.90;;
54845;SDS011;53889;50.084;8.646;2023-11-21T04:10:29;4.60;;;3.00;;
54845;SDS011;53889;50.084;8.646;2023-11-21T04:12:59;4.60;;;3.22;;
54845;SDS011;53889;50.084;8.646;2023-11-21T04:15:27;7.75;;;3.08;;
54845;SDS011;53889;50.084;8.646;2023-11-21T04:17:54;4.65;;;2.83;;
54845;SDS011;53889;50.084;8.646;2023-11-21T04:20:21;4.63;;;3.42;;
54845;SDS011;53889;50.084;8.646;2023-11-21T04:22:48;5.22;;;3.38;;
54845;SDS011;53889;50.084;8.646;2023-11-21T04:25:16;4.63;;;2.83;;
54845;SDS011;53889;50.084;8.646;2023-11-21T04:27:43;5.13;;;2.90;;
54845;SDS011;53889;50.084;8.646;2023-11-21T04:30:11;4.97;;;2.95;;
54845;SDS011;53889;50.084;8.646;2023-11-21T04:32:39;5.47;;;2.85;;
54845;SDS011;53889;50.084;8.646;2023-11-21T04:35:07;4.25;;;2.40;;
54845;SDS011;53889;50.084;8.646;2023-11-21T04:37:34;5.57;;;3.03;;
54845;SDS011;53889;50.084;8.646;2023-11-21T04:40:01;4.10;;;2.25;;
54845;SDS011;53889;50.084;8.646;2023-11-21T04:42:33;3.47;;;2.22;;
54845;SDS011;53889;50.084;8.646;2023-11-21T04:45:00;4.35;;;2.30;;
54845;SDS011;53889;50.084;8.646;2023-11-21T04:47:30;5.00;;;2.65;;
54845;SDS011;53889;50.084;8.646;2023-11-21T04:49:56;5.22;;;2.90;;
54845;SDS011;53889;50.084;8.646;2023-11-21T04:52:23;5.00;;;2.70;;
54845;SDS011;53889;50.084;8.646;2023-11-21T04:54:50;4.45;;;3.05;;
54845;SDS011;53889;50.084;8.646;2023-11-21T04:57:19;4.40;;;3.17;;
54845;SDS011;53889;50.084;8.646;2023-11-21T04:59:48;5.95;;;2.88;;
54845;SDS011;53889;50.084;8.646;2023-11-21T05:02:15;5.20;;;3.22;;
54845;SDS011;53889;50.084;8.646;2023-11-21T05:04:43;4.78;;;3.20;;
54845;SDS011;53889;50.084;8.646;2023-11-21T05:07:10;5.47;;;3.15;;
54845;SDS011;53889;50.084;8.646;2023-11-21T05:09:40;6.40;;;3.60;;
54845;SDS011;53889;50.084;8.646;2023-11-21T05:12:09;5.00;;;3.60;;
54845;SDS011;53889;50.084;8.646;2023-11-21T05:14:36;5.65;;;3.80;;
54845;SDS011;53889;50.084;8.646;2023-11-21T05:17:04;6.28;;;4.25;;
54845;SDS011;53889;50.084;8.646;2023-11-21T05:19:33;4.47;;;3.35;;
54845;SDS011;53889;50.084;8.646;2023-11-21T05:22:00;5.82;;;3.70;;
54845;SDS011;53889;50.084;8.646;2023-11-21T05:24:28;6.05;;;3.47;;
54845;SDS011;53889;50.084;8.646;2023-11-21T05:26:55;5.47;;;3.85;;
54845;SDS011;53889;50.084;8.646;2023-11-21T05:29:22;9.07;;;6.10;;
54845;SDS011;53889;50.084;8.646;2023-11-21T05:31:50;10.95;;;7.65;;
54845;SDS011;53889;50.084;8.646;2023-11-21T05:34:19;14.73;;;9.10;;
54845;SDS011;53889;50.084;8.646;2023-11-21T05:36:48;14.82;;;9.18;;
54845;SDS011;53889;50.084;8.646;2023-11-21T05:39:15;14.73;;;9.05;;
54845;SDS011;53889;50.084;8.646;2023-11-21T05:41:43;16.90;;;10.43;;
54845;SDS011;53889;50.084;8.646;2023-11-21T05:44:10;18.95;;;10.07;;
54845;SDS011;53889;50.084;8.646;2023-11-21T05:46:39;19.55;;;11.90;;
54845;SDS011;53889;50.084;8.646;2023-11-21T05:49:08;20.42;;;12.05;;
54845;SDS011;53889;50.084;8.646;2023-11-21T05:51:36;18.98;;;11.18;;
54845;SDS011;53889;50.084;8.646;2023-11-21T05:54:03;19.20;;;12.18;;
54845;SDS011;53889;50.084;8.646;2023-11-21T05:56:30;22.25;;;12.45;;
54845;SDS011;53889;50.084;8.646;2023-11-21T05:58:56;23.83;;;12.70;;
54845;SDS011;53889;50.084;8.646;2023-11-21T06:01:23;21.55;;;12.85;;
54845;SDS011;53889;50.084;8.646;2023-11-21T06:03:53;27.98;;;14.57;;
54845;SDS011;53889;50.084;8.646;2023-11-21T06:06:20;23.58;;;13.25;;
54845;SDS011;53889;50.084;8.646;2023-11-21T06:08:48;36.17;;;16.65;;
54845;SDS011;53889;50.084;8.646;2023-11-21T06:11:15;29.55;;;16.88;;
54845;SDS011;53889;50.084;8.646;2023-11-21T06:13:42;28.63;;;15.77;;
54845;SDS011;53889;50.084;8.646;2023-11-21T06:16:09;29.02;;;15.52;;
54845;SDS011;53889;50.084;8.646;2023-11-21T06:18:38;28.48;;;15.00;;
54845;SDS011;53889;50.084;8.646;2023-11-21T06:21:05;26.42;;;15.00;;
54845;SDS011;53889;50.084;8.646;2023-11-21T06:23:35;23.77;;;13.23;;
54845;SDS011;53889;50.084;8.646;2023-11-21T06:26:04;23.88;;;12.45;;
54845;SDS011;53889;50.084;8.646;2023-11-21T06:28:31;21.40;;;11.80;;
54845;SDS011;53889;50.084;8.646;2023-11-21T06:30:57;21.60;;;11.75;;
54845;SDS011;53889;50.084;8.646;2023-11-21T06:33:29;21.27;;;12.13;;
54845;SDS011;53889;50.084;8.646;2023-11-21T06:35:56;25.33;;;12.98;;
54845;SDS011;53889;50.084;8.646;2023-11-21T06:38:23;22.20;;;11.82;;
54845;SDS011;53889;50.084;8.646;2023-11-21T06:40:53;20.60;;;10.38;;
54845;SDS011;53889;50.084;8.646;2023-11-21T06:43:21;17.52;;;8.73;;
54845;SDS011;53889;50.084;8.646;2023-11-21T06:45:48;17.45;;;8.68;;
54845;SDS011;53889;50.084;8.646;2023-11-21T06:48:15;11.38;;;6.40;;
54845;SDS011;53889;50.084;8.646;2023-11-21T06:50:42;10.52;;;6.28;;
54845;SDS011;53889;50.084;8.646;2023-11-21T06:53:09;11.80;;;6.35;;
54845;SDS011;53889;50.084;8.646;2023-11-21T06:55:36;11.48;;;5.97;;
54845;SDS011;53889;50.084;8.646;2023-11-21T06:58:02;10.68;;;5.80;;
54845;SDS011;53889;50.084;8.646;2023-11-21T07:00:31;8.77;;;5.47;;
54845;SDS011;53889;50.084;8.646;2023-11-21T07:02:59;9.23;;;5.22;;
54845;SDS011;53889;50.084;8.646;2023-11-21T07:05:25;8.40;;;5.30;;
54845;SDS011;53889;50.084;8.646;2023-11-21T07:07:52;11.90;;;5.25;;
54845;SDS011;53889;50.084;8.646;2023-11-21T07:10:19;10.18;;;5.90;;
54845;SDS011;53889;50.084;8.646;2023-11-21T07:12:46;10.45;;;5.85;;
54845;SDS011;53889;50.084;8.646;2023-11-21T07:15:13;10.35;;;5.40;;
54845;SDS011;53889;50.084;8.646;2023-11-21T07:17:41;10.18;;;5.88;;
54845;SDS011;53889;50.084;8.646;2023-11-21T07:20:09;12.10;;;7.93;;
54845;SDS011;53889;50.084;8.646;2023-11-21T07:22:37;10.55;;;5.63;;
54845;SDS011;53889;50.084;8.646;2023-11-21T07:25:04;11.90;;;5.97;;
54845;SDS011;53889;50.084;8.646;2023-11-21T07:27:32;11.07;;;5.97;;
54845;SDS011;53889;50.084;8.646;2023-11-21T07:30:00;11.02;;;6.90;;
54845;SDS011;53889;50.084;8.646;2023-11-21T07:32:29;11.75;;;6.32;;
54845;SDS011;53889;50.084;8.646;2023-11-21T07:34:58;14.23;;;7.90;;
54845;SDS011;53889;50.084;8.646;2023-11-21T07:37:26;13.10;;;8.23;;
54845;SDS011;53889;50.084;8.646;2023-11-21T07:39:53;10.63;;;6.43;;
54845;SDS011;53889;50.084;8.646;2023-11-21T07:42:21;11.13;;;6.65;;
54845;SDS011;53889;50.084;8.646;2023-11-21T07:44:48;10.25;;;6.20;;
54845;SDS011;53889;50.084;8.646;2023-11-21T07:47:15;10.40;;;6.10;;
54845;SDS011;53889;50.084;8.646;2023-11-21T07:49:42;10.40;;;6.30;;
54845;SDS011;53889;50.084;8.646;2023-11-21T07:52:11;9.60;;;5.63;;
54845;SDS011;53889;50.084;8.646;2023-11-21T07:54:38;11.68;;;6.22;;
54845;SDS011;53889;50.084;8.646;2023-11-21T07:57:05;10.80;;;6.85;;
54845;SDS011;53889;50.084;8.646;2023-11-21T07:59:31;9.77;;;6.00;;
54845;SDS011;53889;50.084;8.646;2023-11-21T08:01:58;10.10;;;5.78;;
54845;SDS011;53889;50.084;8.646;2023-11-21T08:04:25;11.30;;;5.93;;
54845;SDS011;53889;50.084;8.646;2023-11-21T08:06:51;11.18;;;6.65;;
54845;SDS011;53889;50.084;8.646;2023-11-21T08:09:19;11.85;;;6.13;;
54845;SDS011;53889;50.084;8.646;2023-11-21T08:11:48;8.57;;;5.63;;
54845;SDS011;53889;50.084;8.646;2023-11-21T08:14:17;11.68;;;6.45;;
54845;SDS011;53889;50.084;8.646;2023-11-21T08:16:43;12.77;;;7.10;;
54845;SDS011;53889;50.084;8.646;2023-11-21T08:19:10;11.50;;;6.72;;
54845;SDS011;53889;50.084;8.646;2023-11-21T08:21:37;12.00;;;7.07;;
54845;SDS011;53889;50.084;8.646;2023-11-21T08:24:05;12.10;;;7.18;;
54845;SDS011;53889;50.084;8.646;2023-11-21T08:26:37;9.93;;;6.50;;
54845;SDS011;53889;50.084;8.646;2023-11-21T08:29:03;10.90;;;6.63;;
54845;SDS011;53889;50.084;8.646;2023-11-21T08:31:32;10.73;;;6.45;;
54845;SDS011;53889;50.084;8.646;2023-11-21T08:33:59;12.40;;;6.78;;
54845;SDS011;53889;50.084;8.646;2023-11-21T08:36:28;12.68;;;7.35;;
54845;SDS011;53889;50.084;8.646;2023-11-21T08:38:56;10.02;;;6.38;;
54845;SDS011;53889;50.084;8.646;2023-11-21T08:41:23;10.35;;;6.38;;
54845;SDS011;53889;50.084;8.646;2023-11-21T08:43:51;13.07;;;6.78;;
54845;SDS011;53889;50.084;8.646;2023-11-21T08:46:18;11.15;;;6.05;;
54845;SDS011;53889;50.084;8.646;2023-11-21T08:48:45;10.27;;;5.75;;
54845;SDS011;53889;50.084;8.646;2023-11-21T08:51:12;9.30;;;5.95;;
54845;SDS011;53889;50.084;8.646;2023-11-21T08:53:39;11.77;;;6.93;;
54845;SDS011;53889;50.084;8.646;2023-11-21T08:56:06;11.43;;;6.45;;
54845;SDS011;53889;50.084;8.646;2023-11-21T08:58:34;9.60;;;5.30;;
54845;SDS011;53889;50.084;8.646;2023-11-21T09:01:03;9.48;;;5.47;;
54845;SDS011;53889;50.084;8.646;2023-11-21T09:03:31;10.23;;;5.70;;
54845;SDS011;53889;50.084;8.646;2023-11-21T09:05:59;11.88;;;5.80;;
54845;SDS011;53889;50.084;8.646;2023-11-21T09:08:25;10.45;;;5.15;;
54845;SDS011;53889;50.084;8.646;2023-11-21T09:10:53;9.32;;;4.95;;
54845;SDS011;53889;50.084;8.646;2023-11-21T09:13:20;7.70;;;4.82;;
54845;SDS011;53889;50.084;8.646;2023-11-21T09:15:49;10.02;;;4.88;;
54845;SDS011;53889;50.084;8.646;2023-11-21T09:18:17;12.02;;;5.43;;
54845;SDS011;53889;50.084;8.646;2023-11-21T09:20:44;8.27;;;4.60;;
54845;SDS011;53889;50.084;8.646;2023-11-21T09:23:10;7.68;;;4.40;;
54845;SDS011;53889;50.084;8.646;2023-11-21T09:25:37;8.40;;;4.60;;
54845;SDS011;53889;50.084;8.646;2023-11-21T09:28:04;9.57;;;4.03;;
54845;SDS011;53889;50.084;8.646;2023-11-21T09:30:33;8.68;;;4.20;;
54845;SDS011;53889;50.084;8.646;2023-11-21T09:33:00;7.32;;;3.95;;
54845;SDS011;53889;50.084;8.646;2023-11-21T09:35:28;9.07;;;4.40;;
54845;SDS011;53889;50.084;8.646;2023-11-21T09:37:54;9.30;;;4.45;;
54845;SDS011;53889;50.084;8.646;2023-11-21T09:40:21;7.80;;;3.83;;
54845;SDS011;53889;50.084;8.646;2023-11-21T09:42:49;9.07;;;4.10;;
54845;SDS011;53889;50.084;8.646;2023-11-21T09:45:21;9.48;;;4.43;;
54845;SDS011;53889;50.084;8.646;2023-11-21T09:47:52;7.80;;;4.20;;
54845;SDS011;53889;50.084;8.646;2023-11-21T09:50:20;8.00;;;4.10;;
54845;SDS011;53889;50.084;8.646;2023-11-21T09:52:54;7.53;;;3.72;;
54845;SDS011;53889;50.084;8.646;2023-11-21T09:55:26;8.05;;;3.60;;
54845;SDS011;53889;50.084;8.646;2023-11-21T09:57:55;8.68;;;4.15;;
54845;SDS011;53889;50.084;8.646;2023-11-21T10:00:22;7.97;;;4.10;;
54845;SDS011;53889;50.084;8.646;2023-11-21T10:02:50;6.78;;;3.97;;
54845;SDS011;53889;50.084;8.646;2023-11-21T10:05:18;9.68;;;3.90;;
54845;SDS011;53889;50.084;8.646;2023-11-21T10:07:47;7.72;;;3.70;;
54845;SDS011;53889;50.084;8.646;2023-11-21T10:10:17;6.05;;;3.72;;
54845;SDS011;53889;50.084;8.646;2023-11-21T10:12:48;7.32;;;3.50;;
54845;SDS011;53889;50.084;8.646;2023-11-21T10:15:18;5.10;;;3.20;;
54845;SDS011;53889;50.084;8.646;2023-11-21T10:17:48;5.60;;;2.92;;
54845;SDS011;53889;50.084;8.646;2023-11-21T10:20:18;6.90;;;2.97;;
54845;SDS011;53889;50.084;8.646;2023-11-21T10:22:45;5.18;;;2.90;;
54845;SDS011;53889;50.084;8.646;2023-11-21T10:25:13;6.05;;;2.95;;
54845;SDS011;53889;50.084;8.646;2023-11-21T10:27:40;5.00;;;2.40;;
54845;SDS011;53889;50.084;8.646;2023-11-21T10:30:08;4.75;;;2.58;;
54845;SDS011;53889;50.084;8.646;2023-11-21T10:32:37;7.45;;;2.67;;
54845;SDS011;53889;50.084;8.646;2023-11-21T10:35:05;5.38;;;2.78;;
54845;SDS011;53889;50.084;8.646;2023-11-21T10:37:35;6.65;;;2.78;;
54845;SDS011;53889;50.084;8.646;2023-11-21T10:40:04;6.47;;;2.85;;
54845;SDS011;53889;50.084;8.646;2023-11-21T10:42:33;6.93;;;2.95;;
54845;SDS011;53889;50.084;8.646;2023-11-21T10:45:00;7.45;;;3.08;;
54845;SDS011;53889;50.084;8.646;2023-11-21T10:47:28;5.05;;;3.10;;
54845;SDS011;53889;50.084;8.646;2023-11-21T10:49:57;6.95;;;3.10;;
54845;SDS011;53889;50.084;8.646;2023-11-21T10:52:26;5.47;;;2.85;;
54845;SDS011;53889;50.084;8.646;2023-11-21T10:54:53;5.50;;;2.88;;
54845;SDS011;53889;50.084;8.646;2023-11-21T10:57:20;6.00;;;3.40;;
54845;SDS011;53889;50.084;8.646;2023-11-21T10:59:50;6.07;;;3.03;;
54845;SDS011;53889;50.084;8.646;2023-11-21T11:02:21;5.72;;;3.17;;
54845;SDS011;53889;50.084;8.646;2023-11-21T11:04:53;6.10;;;3.10;;
54845;SDS011;53889;50.084;8.646;2023-11-21T11:07:21;5.10;;;3.10;;
54845;SDS011;53889;50.084;8.646;2023-11-21T11:09:52;6.78;;;3.13;;
54845;SDS011;53889;50.084;8.646;2023-11-21T11:12:19;6.28;;;3.28;;
54845;SDS011;53889;50.084;8.646;2023-11-21T11:14:45;7.25;;;3.60;;
54845;SDS011;53889;50.084;8.646;2023-11-21T11:17:15;7.25;;;3.97;;
54845;SDS011;53889;50.084;8.646;2023-11-21T11:19:44;7.32;;;4.28;;
54845;SDS011;53889;50.084;8.646;2023-11-21T11:22:14;7.00;;;4.00;;
54845;SDS011;53889;50.084;8.646;2023-11-21T11:25:01;6.38;;;4.00;;
54845;SDS011;53889;50.084;8.646;2023-11-21T11:27:40;7.13;;;3.97;;
54845;SDS011;53889;50.084;8.646;2023-11-21T11:30:15;8.77;;;3.75;;
54845;SDS011;53889;50.084;8.646;2023-11-21T11:32:52;6.30;;;3.92;;
54845;SDS011;53889;50.084;8.646;2023-11-21T11:35:26;6.68;;;3.47;;
54845;SDS011;53889;50.084;8.646;2023-11-21T11:38:01;8.07;;;4.40;;
54845;SDS011;53889;50.084;8.646;2023-11-21T11:40:38;7.68;;;4.13;;
54845;SDS011;53889;50.084;8.646;2023-11-21T11:43:06;7.72;;;4.53;;
54845;SDS011;53889;50.084;8.646;2023-11-21T11:45:33;7.22;;;4.43;;
54845;SDS011;53889;50.084;8.646;2023-11-21T11:48:05;8.43;;;4.75;;
54845;SDS011;53889;50.084;8.646;2023-11-21T11:50:31;6.40;;;3.83;;
54845;SDS011;53889;50.084;8.646;2023-11-21T11:53:12;8.73;;;4.60;;
54845;SDS011;53889;50.084;8.646;2023-11-21T11:55:40;10.27;;;4.70;;
54845;SDS011;53889;50.084;8.646;2023-11-21T11:58:07;10.32;;;5.03;;
54845;SDS011;53889;50.084;8.646;2023-11-21T12:00:34;10.50;;;4.90;;
54845;SDS011;53889;50.084;8.646;2023-11-21T12:03:05;9.38;;;4.68;;
54845;SDS011;53889;50.084;8.646;2023-11-21T12:05:33;8.35;;;4.57;;
54845;SDS011;53889;50.084;8.646;2023-11-21T12:08:04;9.13;;;4.88;;
54845;SDS011;53889;50.084;8.646;2023-11-21T12:10:32;7.30;;;3.90;;
54845;SDS011;53889;50.084;8.646;2023-11-21T12:13:00;8.70;;;4.30;;
54845;SDS011;53889;50.084;8.646;2023-11-21T12:15:27;8.95;;;4.30;;
54845;SDS011;53889;50.084;8.646;2023-11-21T12:17:57;9.15;;;4.30;;
54845;SDS011;53889;50.084;8.646;2023-11-21T12:20:26;9.30;;;4.65;;
54845;SDS011;53889;50.084;8.646;2023-11-21T12:22:54;8.98;;;5.07;;
54845;SDS011;53889;50.084;8.646;2023-11-21T12:25:22;10.35;;;4.70;;
54845;SDS011;53889;50.084;8.646;2023-11-21T12:27:50;9.70;;;4.90;;
54845;SDS011;53889;50.084;8.646;2023-11-21T12:30:18;7.80;;;4.20;;
54845;SDS011;53889;50.084;8.646;2023-11-21T12:32:48;10.05;;;4.93;;
54845;SDS011;53889;50.084;8.646;2023-11-21T12:35:17;7.88;;;4.43;;
54845;SDS011;53889;50.084;8.646;2023-11-21T12:37:46;10.55;;;5.28;;
54845;SDS011;53889;50.084;8.646;2023-11-21T12:40:13;8.82;;;4.70;;
54845;SDS011;53889;50.084;8.646;2023-11-21T12:42:43;10.07;;;4.20;;
54845;SDS011;53889;50.084;8.646;2023-11-21T12:45:18;8.05;;;5.15;;
54845;SDS011;53889;50.084;8.646;2023-11-21T12:47:47;9.15;;;4.70;;
54845;SDS011;53889;50.084;8.646;2023-11-21T12:50:15;11.52;;;4.80;;
54845;SDS011;53889;50.084;8.646;2023-11-21T12:52:50;8.70;;;4.93;;
54845;SDS011;53889;50.084;8.646;2023-11-21T12:55:19;9.30;;;4.68;;
54845;SDS011;53889;50.084;8.646;2023-11-21T12:57:48;10.20;;;4.80;;
54845;SDS011;53889;50.084;8.646;2023-11-21T13:00:18;8.02;;;4.15;;
54845;SDS011;53889;50.084;8.646;2023-11-21T13:02:53;8.88;;;4.60;;
54845;SDS011;53889;50.084;8.646;2023-11-21T13:05:26;10.75;;;4.60;;
54845;SDS011;53889;50.084;8.646;2023-11-21T13:07:55;7.90;;;4.40;;
54845;SDS011;53889;50.084;8.646;2023-11-21T13:10:25;9.60;;;4.38;;
54845;SDS011;53889;50.084;8.646;2023-11-21T13:12:56;9.35;;;4.60;;
54845;SDS011;53889;50.084;8.646;2023-11-21T13:15:24;7.05;;;4.50;;
54845;SDS011;53889;50.084;8.646;2023-11-21T13:17:52;9.52;;;4.60;;
54845;SDS011;53889;50.084;8.646;2023-11-21T13:20:21;17.38;;;9.15;;
54845;SDS011;53889;50.084;8.646;2023-11-21T13:22:50;8.85;;;4.97;;
54845;SDS011;53889;50.084;8.646;2023-11-21T13:25:20;7.93;;;3.92;;
54845;SDS011;53889;50.084;8.646;2023-11-21T13:27:47;7.10;;;3.65;;
54845;SDS011;53889;50.084;8.646;2023-11-21T13:30:15;7.03;;;3.95;;
54845;SDS011;53889;50.084;8.646;2023-11-21T13:32:43;8.65;;;4.40;;
54845;SDS011;53889;50.084;8.646;2023-11-21T13:35:11;13.60;;;4.50;;
54845;SDS011;53889;50.084;8.646;2023-11-21T13:37:48;8.77;;;4.07;;
54845;SDS011;53889;50.084;8.646;2023-11-21T13:40:22;7.80;;;4.35;;
54845;SDS011;53889;50.084;8.646;2023-11-21T13:42:52;8.82;;;3.88;;
54845;SDS011;53889;50.084;8.646;2023-11-21T13:45:20;9.32;;;4.45;;
54845;SDS011;53889;50.084;8.646;2023-11-21T13:47:49;7.20;;;4.18;;
54845;SDS011;53889;50.084;8.646;2023-11-21T13:50:17;9.27;;;4.28;;
54845;SDS011;53889;50.084;8.646;2023-11-21T13:52:47;11.02;;;4.70;;
54845;SDS011;53889;50.084;8.646;2023-11-21T13:55:18;7.47;;;4.35;;
54845;SDS011;53889;50.084;8.646;2023-11-21T13:57:46;8.23;;;4.35;;
54845;SDS011;53889;50.084;8.646;2023-11-21T14:00:15;8.18;;;4.13;;
54845;SDS011;53889;50.084;8.646;2023-11-21T14:02:56;8.68;;;4.70;;
54845;SDS011;53889;50.084;8.646;2023-11-21T14:05:26;9.27;;;4.32;;
54845;SDS011;53889;50.084;8.646;2023-11-21T14:07:54;8.15;;;4.25;;
54845;SDS011;53889;50.084;8.646;2023-11-21T14:10:27;8.50;;;4.05;;
54845;SDS011;53889;50.084;8.646;2023-11-21T14:13:03;8.73;;;4.25;;
54845;SDS011;53889;50.084;8.646;2023-11-21T14:15:31;8.40;;;4.35;;
54845;SDS011;53889;50.084;8.646;2023-11-21T14:17:58;9.73;;;5.68;;
54845;SDS011;53889;50.084;8.646;2023-11-21T14:20:27;8.18;;;4.55;;
54845;SDS011;53889;50.084;8.646;2023-11-21T14:22:55;9.35;;;4.60;;
54845;SDS011;53889;50.084;8.646;2023-11-21T14:25:22;11.38;;;5.00;;
54845;SDS011;53889;50.084;8.646;2023-11-21T14:27:49;10.40;;;4.97;;
54845;SDS011;53889;50.084;8.646;2023-11-21T14:30:17;8.75;;;4.85;;
54845;SDS011;53889;50.084;8.646;2023-11-21T14:32:47;12.38;;;4.93;;
54845;SDS011;53889;50.084;8.646;2023-11-21T14:35:15;10.50;;;5.03;;
54845;SDS011;53889;50.084;8.646;2023-11-21T14:37:41;9.93;;;5.05;;
54845;SDS011;53889;50.084;8.646;2023-11-21T14:40:09;8.05;;;5.07;;
54845;SDS011;53889;50.084;8.646;2023-11-21T14:42:37;10.65;;;5.10;;
54845;SDS011;53889;50.084;8.646;2023-11-21T14:45:05;10.02;;;6.45;;
54845;SDS011;53889;50.084;8.646;2023-11-21T14:47:34;10.90;;;5.72;;
54845;SDS011;53889;50.084;8.646;2023-11-21T14:50:04;8.70;;;5.63;;